Time;durP1;ratioP1;P1;durP2;ratioP2;P2;SDS_P1;SDS_P2;PMS_P1;PMS_P2;Temp;Humidity;BMP_temperature;BMP_pressure;BME280_temperature;BME280_humidity;BME280_pressure;Samples;Min_cycle;Max_cycle;Signal;HPM_P1;HPM_P2
2023/03/15 18:55:29;;;;;;;1.93;1.83;;;;;;;11.60;100.00;99924.47;2622649;54;20466;-58
2023/03/15 18:57:59;;;;;;;2.23;2.03;;;;;;;11.92;100.00;99937.59;2623017;49;20441;-57
2023/03/15 19:00:34;;;;;;;3.78;3.13;;;;;;;11.73;100.00;99933.00;2622517;54;20154;-58
2023/03/15 19:03:07;;;;;;;4.73;1.40;;;;;;;11.48;100.00;99925.41;2622772;54;20199;-55
2023/03/15 19:05:39;;;;;;;0.35;0.25;;;;;;;11.75;100.00;99931.13;2622976;47;20160;-56
2023/03/15 19:08:09;;;;;;;1.77;1.67;;;;;;;11.80;100.00;99930.75;2622836;54;20161;-54
2023/03/15 19:10:43;;;;;;;4.75;3.00;;;;;;;11.97;100.00;99925.91;2622780;54;20410;-54
2023/03/15 19:13:13;;;;;;;0.47;0.47;;;;;;;11.91;100.00;99931.59;2621951;54;20197;-58
2023/03/15 19:15:43;;;;;;;4.33;2.70;;;;;;;11.75;100.00;99940.69;2622873;47;20164;-57
2023/03/15 19:18:13;;;;;;;4.33;1.90;;;;;;;11.94;100.00;99931.34;2623132;54;20173;-58
2023/03/15 19:20:44;;;;;;;0.53;0.53;;;;;;;11.95;100.00;99914.00;2623894;54;20189;-59
2023/03/15 19:23:14;;;;;;;0.53;0.53;;;;;;;12.28;100.00;99955.53;2624280;54;20177;-58
2023/03/15 19:25:47;;;;;;;2.23;2.03;;;;;;;11.96;100.00;99941.63;2623515;47;20149;-59
2023/03/15 19:28:18;;;;;;;1.20;0.55;;;;;;;12.35;100.00;99951.50;2624601;39;20476;-58
2023/03/15 19:30:48;;;;;;;0.67;0.43;;;;;;;12.18;100.00;99946.81;2624037;54;20172;-59
2023/03/15 19:33:18;;;;;;;2.45;1.65;;;;;;;12.47;100.00;99934.09;2622285;54;20197;-56
2023/03/15 19:35:48;;;;;;;0.07;0.07;;;;;;;12.35;100.00;99945.47;2623951;54;20169;-59
2023/03/15 19:38:19;;;;;;;2.30;1.50;;;;;;;12.23;100.00;99942.06;2623410;54;20193;-59
2023/03/15 19:40:54;;;;;;;2.65;1.65;;;;;;;12.31;100.00;99938.88;2623963;54;20498;-55
2023/03/15 19:43:25;;;;;;;1.67;1.33;;;;;;;12.16;100.00;99933.09;2623725;54;20187;-61
2023/03/15 19:45:55;;;;;;;1.17;1.07;;;;;;;11.99;100.00;99938.81;2623995;54;20181;-57
2023/03/15 19:48:25;;;;;;;1.07;0.57;;;;;;;11.96;100.00;99933.81;2623228;54;20260;-55
2023/03/15 19:50:56;;;;;;;4.90;3.30;;;;;;;11.96;100.00;99934.66;2623483;54;20388;-57
2023/03/15 19:53:26;;;;;;;7.75;2.83;;;;;;;11.87;100.00;99934.56;2623638;54;20239;-55
2023/03/15 19:55:59;;;;;;;3.50;2.53;;;;;;;11.74;100.00;99924.28;2623036;54;20154;-58
2023/03/15 19:58:29;;;;;;;0.83;0.83;;;;;;;11.78;100.00;99927.47;2623879;50;20181;-58
2023/03/15 20:01:00;;;;;;;2.00;1.20;;;;;;;11.79;100.00;99937.75;2623271;51;20180;-58
2023/03/15 20:03:33;;;;;;;1.50;0.57;;;;;;;11.80;100.00;99933.34;2623293;54;20453;-61
2023/03/15 20:06:08;;;;;;;0.77;0.77;;;;;;;11.94;100.00;99930.53;2623909;54;20160;-58
2023/03/15 20:08:38;;;;;;;6.90;4.33;;;;;;;11.98;100.00;99935.38;2623477;47;20188;-56
2023/03/15 20:11:13;;;;;;;4.37;2.10;;;;;;;11.99;100.00;99936.19;2623900;53;20153;-57
2023/03/15 20:13:43;;;;;;;1.83;1.27;;;;;;;11.93;100.00;99931.47;2623011;54;20203;-57
2023/03/15 20:16:14;;;;;;;3.43;3.20;;;;;;;11.96;100.00;99926.00;2623686;54;20220;-65
2023/03/15 20:18:45;;;;;;;6.93;2.60;;;;;;;11.57;100.00;99924.69;2623564;54;20181;-55
2023/03/15 20:21:15;;;;;;;3.20;2.93;;;;;;;11.61;100.00;99926.97;2623662;47;20154;-56
2023/03/15 20:23:46;;;;;;;1.20;0.83;;;;;;;11.82;100.00;99941.88;2623536;54;20181;-54
2023/03/15 20:26:22;;;;;;;16.17;5.27;;;;;;;11.69;100.00;99937.59;2623329;54;20161;-61
2023/03/15 20:28:52;;;;;;;0.97;0.97;;;;;;;11.75;100.00;99932.91;2623086;54;20212;-58
2023/03/15 20:31:22;;;;;;;3.23;2.93;;;;;;;11.75;100.00;99938.09;2623756;54;20228;-55
2023/03/15 20:33:53;;;;;;;1.07;1.07;;;;;;;11.83;100.00;99936.56;2623521;54;20197;-56
2023/03/15 20:36:23;;;;;;;1.93;1.63;;;;;;;11.93;100.00;99940.09;2623592;54;20173;-55
2023/03/15 20:38:53;;;;;;;5.57;3.37;;;;;;;11.89;100.00;99938.69;2623358;54;20185;-56
2023/03/15 20:41:26;;;;;;;3.93;3.57;;;;;;;11.65;100.00;99943.13;2623522;54;20187;-58
2023/03/15 20:43:56;;;;;;;1.75;1.20;;;;;;;11.65;100.00;99951.75;2623636;54;20181;-58
2023/03/15 20:46:26;;;;;;;3.47;3.13;;;;;;;11.87;100.00;99952.75;2623668;54;20169;-58
2023/03/15 20:48:56;;;;;;;0.73;0.40;;;;;;;11.76;100.00;99957.91;2623385;54;20461;-54
2023/03/15 20:51:26;;;;;;;3.70;2.57;;;;;;;11.77;100.00;99957.81;2622981;54;20176;-58
2023/03/15 20:53:56;;;;;;;1.80;1.70;;;;;;;12.03;100.00;99958.41;2623738;39;20339;-55
2023/03/15 20:56:29;;;;;;;5.00;1.93;;;;;;;11.91;100.00;99952.41;2623547;54;20445;-56
2023/03/15 20:58:59;;;;;;;4.07;1.70;;;;;;;12.08;100.00;99959.69;2623446;54;20185;-57
2023/03/15 21:01:30;;;;;;;0.27;0.27;;;;;;;12.11;100.00;99967.28;2623721;54;20157;-58
2023/03/15 21:04:00;;;;;;;3.77;0.67;;;;;;;11.97;100.00;99971.88;2622724;54;20208;-55
2023/03/15 21:06:30;;;;;;;0.00;0.00;;;;;;;12.07;100.00;99965.03;2623528;54;20153;-57
2023/03/15 21:09:01;;;;;;;2.20;1.90;;;;;;;11.89;100.00;99972.47;2623645;54;20181;-59
2023/03/15 21:11:33;;;;;;;1.97;0.37;;;;;;;11.93;100.00;99968.69;2623487;54;20179;-56
2023/03/15 21:14:03;;;;;;;2.27;1.73;;;;;;;11.74;100.00;99968.44;2623468;54;20181;-59
2023/03/15 21:16:33;;;;;;;2.47;1.43;;;;;;;11.52;100.00;99979.59;2622891;54;20438;-55
2023/03/15 21:19:04;;;;;;;1.13;1.13;;;;;;;11.52;100.00;99987.41;2623621;51;20187;-57
2023/03/15 21:21:34;;;;;;;4.37;2.17;;;;;;;11.57;100.00;99977.50;2623420;54;20150;-56
2023/03/15 21:24:05;;;;;;;3.30;2.30;;;;;;;11.67;100.00;99975.84;2623148;54;20220;-55
2023/03/15 21:26:42;;;;;;;1.60;1.50;;;;;;;11.47;100.00;99978.31;2623797;54;20160;-56
2023/03/15 21:29:12;;;;;;;0.70;0.70;;;;;;;11.60;100.00;99973.81;2623141;54;20278;-58
2023/03/15 21:31:43;;;;;;;1.37;1.27;;;;;;;11.46;100.00;99969.69;2623496;47;20180;-55
2023/03/15 21:34:13;;;;;;;0.10;0.10;;;;;;;11.53;100.00;99970.03;2623493;54;20200;-57
2023/03/15 21:36:43;;;;;;;2.40;1.67;;;;;;;11.22;100.00;99971.53;2623413;54;20647;-59
2023/03/15 21:39:13;;;;;;;0.70;0.70;;;;;;;11.37;100.00;99985.97;2622598;54;20200;-56
2023/03/15 21:41:46;;;;;;;4.97;1.43;;;;;;;11.39;100.00;99989.28;2623312;54;20169;-59
2023/03/15 21:44:16;;;;;;;4.57;4.23;;;;;;;11.53;100.00;99986.47;2623227;54;20187;-59
2023/03/15 21:46:46;;;;;;;1.33;1.23;;;;;;;11.57;100.00;99985.28;2623951;39;20350;-55
2023/03/15 21:49:17;;;;;;;4.33;3.97;;;;;;;11.05;100.00;99985.75;2623165;54;20196;-57
2023/03/15 21:51:47;;;;;;;2.20;1.57;;;;;;;11.38;100.00;99985.03;2623108;54;20154;-57
2023/03/15 21:54:17;;;;;;;5.27;3.53;;;;;;;11.12;100.00;99978.31;2623013;54;20249;-58
2023/03/15 21:56:51;;;;;;;4.53;3.20;;;;;;;11.25;100.00;99974.72;2623715;54;20169;-58
2023/03/15 21:59:26;;;;;;;1.93;1.83;;;;;;;11.02;100.00;99977.34;2623547;54;20196;-58
2023/03/15 22:01:57;;;;;;;7.90;5.97;;;;;;;11.12;100.00;99973.13;2623292;54;20137;-56
2023/03/15 22:04:27;;;;;;;6.57;4.17;;;;;;;11.27;100.00;99983.19;2623579;54;20185;-54
2023/03/15 22:06:57;;;;;;;10.27;4.27;;;;;;;11.29;100.00;99975.31;2624080;54;20156;-55
2023/03/15 22:09:28;;;;;;;14.27;3.07;;;;;;;11.09;100.00;99981.97;2623861;54;20205;-54
2023/03/15 22:12:00;;;;;;;4.90;4.53;;;;;;;11.26;100.00;99986.75;2624060;47;20168;-56
2023/03/15 22:14:30;;;;;;;14.20;3.27;;;;;;;11.14;100.00;99992.03;2623890;54;20470;-57
2023/03/15 22:17:03;;;;;;;3.33;1.93;;;;;;;11.27;100.00;99983.19;2623714;54;20153;-54
2023/03/15 22:19:33;;;;;;;6.43;3.47;;;;;;;11.13;100.00;99990.38;2623852;54;20177;-58
2023/03/15 22:22:04;;;;;;;1.33;0.57;;;;;;;11.06;100.00;99992.59;2624105;54;20138;-59
2023/03/15 22:24:34;;;;;;;0.97;0.87;;;;;;;11.15;100.00;99993.69;2623912;54;20185;-57
2023/03/15 22:27:07;;;;;;;3.00;2.53;;;;;;;10.86;100.00;99992.38;2624075;54;20141;-60
2023/03/15 22:29:38;;;;;;;5.30;4.97;;;;;;;11.11;100.00;99994.88;2623541;54;20177;-59
2023/03/15 22:32:08;;;;;;;4.03;2.67;;;;;;;10.83;100.00;99993.44;2624000;54;20153;-55
2023/03/15 22:34:38;;;;;;;3.57;2.90;;;;;;;10.86;100.00;99997.56;2623868;54;20161;-57
2023/03/15 22:37:08;;;;;;;7.20;5.23;;;;;;;10.66;100.00;99992.06;2624060;54;20160;-58
2023/03/15 22:39:39;;;;;;;5.37;3.37;;;;;;;10.91;100.00;99992.91;2623776;54;20153;-54
2023/03/15 22:42:12;;;;;;;2.90;2.07;;;;;;;11.24;100.00;99990.41;2623250;54;20175;-55
2023/03/15 22:44:42;;;;;;;2.83;2.73;;;;;;;10.88;100.00;99990.50;2623224;54;20173;-59
2023/03/15 22:47:12;;;;;;;4.53;3.13;;;;;;;10.95;100.00;100000.34;2622023;54;20173;-55
2023/03/15 22:49:42;;;;;;;5.03;4.50;;;;;;;10.91;100.00;99985.09;2623591;54;20163;-55
2023/03/15 22:52:12;;;;;;;2.07;1.50;;;;;;;11.05;100.00;99998.72;2623975;54;20164;-52
2023/03/15 22:54:43;;;;;;;4.20;3.60;;;;;;;10.94;100.00;99992.66;2624626;54;20199;-56
2023/03/15 22:57:16;;;;;;;3.30;3.07;;;;;;;10.94;100.00;99995.25;2624655;39;20364;-55
2023/03/15 22:59:46;;;;;;;5.73;4.27;;;;;;;11.23;100.00;100006.94;2624799;47;20160;-55
2023/03/15 23:02:16;;;;;;;4.20;1.87;;;;;;;11.30;100.00;100008.13;2624529;54;20145;-57
2023/03/15 23:04:46;;;;;;;0.70;0.70;;;;;;;11.15;100.00;100009.28;2624966;39;20291;-54
2023/03/15 23:07:16;;;;;;;8.10;4.30;;;;;;;11.02;100.00;100003.31;2624619;54;20149;-57
2023/03/15 23:09:47;;;;;;;7.87;5.30;;;;;;;10.68;100.00;100005.75;2624877;39;20345;-56
2023/03/15 23:12:20;;;;;;;6.70;4.70;;;;;;;10.83;100.00;100003.00;2624631;54;20140;-54
2023/03/15 23:15:02;;;;;;;9.53;4.97;;;;;;;10.68;100.00;100003.16;2624625;54;20157;-57
2023/03/15 23:17:33;;;;;;;6.73;5.00;;;;;;;10.44;100.00;99996.28;2624548;54;20276;-57
2023/03/15 23:20:05;;;;;;;5.90;5.27;;;;;;;10.68;100.00;100016.13;2624587;54;20168;-55
2023/03/15 23:22:36;;;;;;;2.40;2.23;;;;;;;11.10;100.00;100027.78;2624103;54;20177;-53
2023/03/15 23:25:07;;;;;;;9.27;8.00;;;;;;;10.73;100.00;100026.16;2624624;54;20138;-59
2023/03/15 23:27:40;;;;;;;6.27;4.70;;;;;;;10.61;100.00;100025.28;2624591;54;20185;-54
2023/03/15 23:30:12;;;;;;;6.87;2.67;;;;;;;10.53;100.00;100027.59;2625036;39;20333;-54
2023/03/15 23:32:42;;;;;;;8.63;5.67;;;;;;;10.68;100.00;100020.47;2624571;54;20177;-56
2023/03/15 23:35:14;;;;;;;6.30;4.23;;;;;;;10.46;100.00;100018.59;2624270;54;20446;-53
2023/03/15 23:37:44;;;;;;;7.00;5.50;;;;;;;10.55;100.00;100022.31;2624566;54;20184;-57
2023/03/15 23:40:15;;;;;;;5.70;2.80;;;;;;;10.72;100.00;100022.75;2625010;39;20303;-57
2023/03/15 23:42:51;;;;;;;0.40;0.40;;;;;;;10.88;100.00;100022.47;2624438;54;20177;-55
2023/03/15 23:45:21;;;;;;;0.33;0.30;;;;;;;11.01;100.00;100017.22;2624617;54;20133;-57
2023/03/15 23:47:51;;;;;;;6.33;3.97;;;;;;;10.95;100.00;100022.88;2624040;54;20177;-58
2023/03/15 23:50:24;;;;;;;2.50;2.30;;;;;;;11.10;100.00;100025.19;2624977;39;20308;-57
2023/03/15 23:52:56;;;;;;;8.47;4.67;;;;;;;11.06;100.00;100028.94;2624431;54;20177;-55
2023/03/15 23:55:26;;;;;;;4.00;3.13;;;;;;;11.28;100.00;100025.59;2624191;54;20180;-54
2023/03/15 23:58:00;;;;;;;8.00;3.07;;;;;;;11.04;100.00;100022.19;2624430;54;20181;-55
